sensor_id;sensor_type;location;lat;lon;timestamp;pressure;altitude;pressure_sealevel;temperature;humidity
21236;BME280;10775;42.678;26.324;2024-02-26T00:02:15;98456.81;;;8.96;100.00
21236;BME280;10775;42.678;26.324;2024-02-26T00:04:41;98448.06;;;8.99;100.00
21236;BME280;10775;42.678;26.324;2024-02-26T00:07:06;98454.91;;;9.04;100.00
21236;BME280;10775;42.678;26.324;2024-02-26T00:09:32;98457.59;;;9.01;100.00
21236;BME280;10775;42.678;26.324;2024-02-26T00:12:01;98450.66;;;9.00;100.00
21236;BME280;10775;42.678;26.324;2024-02-26T00:14:26;98452.56;;;8.89;100.00
21236;BME280;10775;42.678;26.324;2024-02-26T00:16:52;98450.06;;;8.83;100.00
21236;BME280;10775;42.678;26.324;2024-02-26T00:19:17;98449.22;;;8.81;100.00
21236;BME280;10775;42.678;26.324;2024-02-26T00:21:42;98442.31;;;8.80;100.00
21236;BME280;10775;42.678;26.324;2024-02-26T00:24:08;98450.19;;;8.75;100.00
21236;BME280;10775;42.678;26.324;2024-02-26T00:26:34;98443.19;;;8.79;100.00
21236;BME280;10775;42.678;26.324;2024-02-26T00:28:59;98445.00;;;8.75;100.00
21236;BME280;10775;42.678;26.324;2024-02-26T00:31:24;98441.47;;;8.76;100.00
21236;BME280;10775;42.678;26.324;2024-02-26T00:33:50;98431.09;;;8.75;100.00
21236;BME280;10775;42.678;26.324;2024-02-26T00:36:15;98432.81;;;8.76;100.00
21236;BME280;10775;42.678;26.324;2024-02-26T00:38:41;98431.91;;;8.77;100.00
21236;BME280;10775;42.678;26.324;2024-02-26T00:41:08;98425.84;;;8.76;100.00
21236;BME280;10775;42.678;26.324;2024-02-26T00:43:33;98420.69;;;8.75;100.00
21236;BME280;10775;42.678;26.324;2024-02-26T00:45:59;98419.84;;;8.73;100.00
21236;BME280;10775;42.678;26.324;2024-02-26T00:48:24;98417.19;;;8.74;100.00
21236;BME280;10775;42.678;26.324;2024-02-26T00:50:51;98413.72;;;8.75;100.00
21236;BME280;10775;42.678;26.324;2024-02-26T00:53:16;98413.66;;;8.78;100.00
21236;BME280;10775;42.678;26.324;2024-02-26T00:55:42;98407.47;;;8.84;100.00
21236;BME280;10775;42.678;26.324;2024-02-26T00:58:07;98404.00;;;8.85;100.00
21236;BME280;10775;42.678;26.324;2024-02-26T01:00:33;98404.91;;;8.82;100.00
21236;BME280;10775;42.678;26.324;2024-02-26T01:02:58;98400.69;;;8.75;100.00
21236;BME280;10775;42.678;26.324;2024-02-26T01:05:25;98395.47;;;8.74;100.00
21236;BME280;10775;42.678;26.324;2024-02-26T01:07:50;98391.94;;;8.78;100.00
21236;BME280;10775;42.678;26.324;2024-02-26T01:10:16;98384.00;;;8.84;100.00
21236;BME280;10775;42.678;26.324;2024-02-26T01:12:41;98378.59;;;8.95;100.00
21236;BME280;10775;42.678;26.324;2024-02-26T01:15:07;98362.91;;;8.98;100.00
21236;BME280;10775;42.678;26.324;2024-02-26T01:17:33;98369.84;;;8.99;100.00
21236;BME280;10775;42.678;26.324;2024-02-26T01:19:58;98367.94;;;9.07;100.00
21236;BME280;10775;42.678;26.324;2024-02-26T01:22:24;98366.03;;;9.15;100.00
21236;BME280;10775;42.678;26.324;2024-02-26T01:24:49;98363.56;;;9.10;100.00
21236;BME280;10775;42.678;26.324;2024-02-26T01:27:15;98369.69;;;9.06;100.00
21236;BME280;10775;42.678;26.324;2024-02-26T01:29:41;98362.84;;;9.01;100.00
21236;BME280;10775;42.678;26.324;2024-02-26T01:32:07;98369.06;;;8.95;100.00
21236;BME280;10775;42.678;26.324;2024-02-26T01:34:32;98373.44;;;8.93;100.00
21236;BME280;10775;42.678;26.324;2024-02-26T01:36:58;98369.09;;;8.92;100.00
21236;BME280;10775;42.678;26.324;2024-02-26T01:39:24;98368.22;;;8.93;100.00
21236;BME280;10775;42.678;26.324;2024-02-26T01:41:49;98367.31;;;8.94;100.00
21236;BME280;10775;42.678;26.324;2024-02-26T01:44:15;98369.06;;;8.93;100.00
21236;BME280;10775;42.678;26.324;2024-02-26T01:46:40;98362.03;;;8.97;100.00
21236;BME280;10775;42.678;26.324;2024-02-26T01:49:06;98367.22;;;9.00;100.00
21236;BME280;10775;42.678;26.324;2024-02-26T01:51:33;98365.47;;;8.99;100.00
21236;BME280;10775;42.678;26.324;2024-02-26T01:54:02;98369.00;;;8.98;100.00
21236;BME280;10775;42.678;26.324;2024-02-26T01:56:29;98362.88;;;8.99;100.00
21236;BME280;10775;42.678;26.324;2024-02-26T01:58:58;98353.34;;;8.98;100.00
21236;BME280;10775;42.678;26.324;2024-02-26T02:01:31;98360.31;;;8.98;100.00
21236;BME280;10775;42.678;26.324;2024-02-26T02:03:59;98356.81;;;8.99;100.00
21236;BME280;10775;42.678;26.324;2024-02-26T02:06:24;98351.56;;;9.00;100.00
21236;BME280;10775;42.678;26.324;2024-02-26T02:08:50;98357.66;;;8.99;100.00
21236;BME280;10775;42.678;26.324;2024-02-26T02:11:17;98356.72;;;9.03;100.00
21236;BME280;10775;42.678;26.324;2024-02-26T02:13:42;98362.72;;;9.08;100.00
21236;BME280;10775;42.678;26.324;2024-02-26T02:16:08;98355.72;;;9.10;100.00
21236;BME280;10775;42.678;26.324;2024-02-26T02:18:34;98350.22;;;9.26;100.00
21236;BME280;10775;42.678;26.324;2024-02-26T02:21:03;98353.59;;;9.31;100.00
21236;BME280;10775;42.678;26.324;2024-02-26T02:23:28;98355.38;;;9.27;100.00
21236;BME280;10775;42.678;26.324;2024-02-26T02:25:54;98351.91;;;9.28;100.00
21236;BME280;10775;42.678;26.324;2024-02-26T02:28:21;98354.50;;;9.28;100.00
21236;BME280;10775;42.678;26.324;2024-02-26T02:30:48;98349.22;;;9.31;100.00
21236;BME280;10775;42.678;26.324;2024-02-26T02:33:15;98345.63;;;9.35;100.00
21236;BME280;10775;42.678;26.324;2024-02-26T02:35:41;98338.66;;;9.38;100.00
21236;BME280;10775;42.678;26.324;2024-02-26T02:38:06;98347.25;;;9.43;100.00
21236;BME280;10775;42.678;26.324;2024-02-26T02:40:32;98347.25;;;9.43;100.00
21236;BME280;10775;42.678;26.324;2024-02-26T02:42:57;98350.66;;;9.46;100.00
21236;BME280;10775;42.678;26.324;2024-02-26T02:45:23;98336.78;;;9.44;100.00
21236;BME280;10775;42.678;26.324;2024-02-26T02:47:49;98348.06;;;9.45;100.00
21236;BME280;10775;42.678;26.324;2024-02-26T02:50:14;98338.41;;;9.48;100.00
21236;BME280;10775;42.678;26.324;2024-02-26T02:52:40;98339.25;;;9.50;100.00
21236;BME280;10775;42.678;26.324;2024-02-26T02:55:05;98342.72;;;9.51;100.00
21236;BME280;10775;42.678;26.324;2024-02-26T02:57:31;98347.91;;;9.54;100.00
21236;BME280;10775;42.678;26.324;2024-02-26T02:59:58;98343.47;;;9.57;100.00
21236;BME280;10775;42.678;26.324;2024-02-26T03:02:23;98345.16;;;9.58;100.00
21236;BME280;10775;42.678;26.324;2024-02-26T03:04:52;98347.00;;;9.55;100.00
21236;BME280;10775;42.678;26.324;2024-02-26T03:07:17;98349.63;;;9.53;100.00
21236;BME280;10775;42.678;26.324;2024-02-26T03:09:43;98364.50;;;9.48;100.00
21236;BME280;10775;42.678;26.324;2024-02-26T03:12:08;98359.44;;;9.42;100.00
21236;BME280;10775;42.678;26.324;2024-02-26T03:14:34;98355.22;;;9.36;100.00
21236;BME280;10775;42.678;26.324;2024-02-26T03:16:59;98356.13;;;9.34;100.00
21236;BME280;10775;42.678;26.324;2024-02-26T03:19:25;98366.50;;;9.37;100.00
21236;BME280;10775;42.678;26.324;2024-02-26T03:21:50;98365.56;;;9.40;100.00
21236;BME280;10775;42.678;26.324;2024-02-26T03:24:15;98360.34;;;9.41;100.00
21236;BME280;10775;42.678;26.324;2024-02-26T03:26:41;98356.06;;;9.37;100.00
21236;BME280;10775;42.678;26.324;2024-02-26T03:29:06;98354.34;;;9.36;100.00
21236;BME280;10775;42.678;26.324;2024-02-26T03:31:32;98357.03;;;9.31;100.00
21236;BME280;10775;42.678;26.324;2024-02-26T03:33:57;98352.81;;;9.26;100.00
21236;BME280;10775;42.678;26.324;2024-02-26T03:36:22;98359.81;;;9.24;100.00
21236;BME280;10775;42.678;26.324;2024-02-26T03:38:48;98354.59;;;9.24;100.00
21236;BME280;10775;42.678;26.324;2024-02-26T03:41:14;98352.03;;;9.21;100.00
21236;BME280;10775;42.678;26.324;2024-02-26T03:43:40;98355.56;;;9.18;100.00
21236;BME280;10775;42.678;26.324;2024-02-26T03:46:08;98346.06;;;9.16;100.00
21236;BME280;10775;42.678;26.324;2024-02-26T03:48:39;98349.53;;;9.14;100.00
21236;BME280;10775;42.678;26.324;2024-02-26T03:51:05;98348.69;;;9.14;100.00
21236;BME280;10775;42.678;26.324;2024-02-26T03:53:30;98346.09;;;9.12;100.00
21236;BME280;10775;42.678;26.324;2024-02-26T03:55:56;98337.41;;;9.12;100.00
21236;BME280;10775;42.678;26.324;2024-02-26T03:58:21;98338.34;;;9.09;100.00
21236;BME280;10775;42.678;26.324;2024-02-26T04:00:47;98336.59;;;9.10;100.00
21236;BME280;10775;42.678;26.324;2024-02-26T04:03:15;98344.38;;;9.13;100.00
21236;BME280;10775;42.678;26.324;2024-02-26T04:05:41;98340.84;;;9.16;100.00
21236;BME280;10775;42.678;26.324;2024-02-26T04:08:06;98339.94;;;9.17;100.00
21236;BME280;10775;42.678;26.324;2024-02-26T04:10:36;98340.78;;;9.19;100.00
21236;BME280;10775;42.678;26.324;2024-02-26T04:13:04;98336.41;;;9.21;100.00
21236;BME280;10775;42.678;26.324;2024-02-26T04:15:30;98340.66;;;9.25;100.00
21236;BME280;10775;42.678;26.324;2024-02-26T04:17:56;98331.94;;;9.26;100.00
21236;BME280;10775;42.678;26.324;2024-02-26T04:20:21;98336.25;;;9.27;100.00
21236;BME280;10775;42.678;26.324;2024-02-26T04:22:47;98340.56;;;9.28;100.00
21236;BME280;10775;42.678;26.324;2024-02-26T04:25:13;98336.25;;;9.27;100.00
21236;BME280;10775;42.678;26.324;2024-02-26T04:27:39;98333.72;;;9.24;100.00
21236;BME280;10775;42.678;26.324;2024-02-26T04:30:05;98330.28;;;9.22;100.00
21236;BME280;10775;42.678;26.324;2024-02-26T04:32:31;98322.47;;;9.20;100.00
21236;BME280;10775;42.678;26.324;2024-02-26T04:34:57;98325.97;;;9.19;100.00
21236;BME280;10775;42.678;26.324;2024-02-26T04:37:22;98332.06;;;9.20;100.00
21236;BME280;10775;42.678;26.324;2024-02-26T04:39:48;98328.59;;;9.18;100.00
21236;BME280;10775;42.678;26.324;2024-02-26T04:42:13;98328.59;;;9.18;100.00
21236;BME280;10775;42.678;26.324;2024-02-26T04:44:39;98322.53;;;9.19;100.00
21236;BME280;10775;42.678;26.324;2024-02-26T04:47:04;98311.19;;;9.20;100.00
21236;BME280;10775;42.678;26.324;2024-02-26T04:49:30;98316.34;;;9.23;100.00
21236;BME280;10775;42.678;26.324;2024-02-26T04:51:55;98322.38;;;9.26;100.00
21236;BME280;10775;42.678;26.324;2024-02-26T04:54:21;98322.16;;;9.35;100.00
21236;BME280;10775;42.678;26.324;2024-02-26T04:56:47;98314.28;;;9.39;100.00
21236;BME280;10775;42.678;26.324;2024-02-26T04:59:13;98318.69;;;9.36;100.00
21236;BME280;10775;42.678;26.324;2024-02-26T05:01:39;98315.97;;;9.41;100.00
21236;BME280;10775;42.678;26.324;2024-02-26T05:04:04;98310.78;;;9.40;100.00
21236;BME280;10775;42.678;26.324;2024-02-26T05:06:30;98322.13;;;9.39;100.00
21236;BME280;10775;42.678;26.324;2024-02-26T05:08:55;98328.22;;;9.38;100.00
21236;BME280;10775;42.678;26.324;2024-02-26T05:11:21;98327.28;;;9.42;100.00
21236;BME280;10775;42.678;26.324;2024-02-26T05:13:47;98325.50;;;9.42;100.00
21236;BME280;10775;42.678;26.324;2024-02-26T05:16:13;98329.72;;;9.49;100.00
21236;BME280;10775;42.678;26.324;2024-02-26T05:18:38;98328.78;;;9.52;100.00
21236;BME280;10775;42.678;26.324;2024-02-26T05:21:04;98333.09;;;9.54;100.00
21236;BME280;10775;42.678;26.324;2024-02-26T05:23:29;98332.25;;;9.54;100.00
21236;BME280;10775;42.678;26.324;2024-02-26T05:25:55;98327.03;;;9.52;100.00
21236;BME280;10775;42.678;26.324;2024-02-26T05:28:21;98335.78;;;9.51;100.00
21236;BME280;10775;42.678;26.324;2024-02-26T05:30:46;98337.41;;;9.55;100.00
21236;BME280;10775;42.678;26.324;2024-02-26T05:33:12;98339.03;;;9.61;100.00
21236;BME280;10775;42.678;26.324;2024-02-26T05:35:37;98347.69;;;9.63;100.00
21236;BME280;10775;42.678;26.324;2024-02-26T05:38:03;98349.34;;;9.67;100.00
21236;BME280;10775;42.678;26.324;2024-02-26T05:40:29;98350.88;;;9.76;100.00
21236;BME280;10775;42.678;26.324;2024-02-26T05:42:55;98360.31;;;9.82;100.00
21236;BME280;10775;42.678;26.324;2024-02-26T05:45:21;98364.69;;;9.83;100.00
21236;BME280;10775;42.678;26.324;2024-02-26T05:47:47;98367.22;;;9.84;100.00
21236;BME280;10775;42.678;26.324;2024-02-26T05:50:13;98361.22;;;9.82;100.00
21236;BME280;10775;42.678;26.324;2024-02-26T05:52:40;98369.81;;;9.86;100.00
21236;BME280;10775;42.678;26.324;2024-02-26T05:55:05;98370.69;;;9.86;100.00
21236;BME280;10775;42.678;26.324;2024-02-26T05:57:34;98373.19;;;9.91;100.00
21236;BME280;10775;42.678;26.324;2024-02-26T06:00:00;98387.03;;;9.94;100.00
21236;BME280;10775;42.678;26.324;2024-02-26T06:02:29;98384.41;;;9.94;100.00
21236;BME280;10775;42.678;26.324;2024-02-26T06:04:55;98391.50;;;9.89;100.00
21236;BME280;10775;42.678;26.324;2024-02-26T06:07:20;98400.75;;;9.64;100.00
21236;BME280;10775;42.678;26.324;2024-02-26T06:09:46;98398.09;;;9.23;100.00
21236;BME280;10775;42.678;26.324;2024-02-26T06:12:11;98406.41;;;8.94;100.00
21236;BME280;10775;42.678;26.324;2024-02-26T06:14:37;98403.94;;;8.88;100.00
21236;BME280;10775;42.678;26.324;2024-02-26T06:17:02;98405.50;;;8.98;100.00
21236;BME280;10775;42.678;26.324;2024-02-26T06:19:28;98407.75;;;9.18;100.00
21236;BME280;10775;42.678;26.324;2024-02-26T06:21:53;98404.78;;;9.35;100.00
21236;BME280;10775;42.678;26.324;2024-02-26T06:24:19;98403.81;;;9.41;100.00
21236;BME280;10775;42.678;26.324;2024-02-26T06:26:46;98396.66;;;9.50;100.00
21236;BME280;10775;42.678;26.324;2024-02-26T06:29:12;98405.94;;;9.65;100.00
21236;BME280;10775;42.678;26.324;2024-02-26T06:31:37;98395.34;;;9.73;100.00
21236;BME280;10775;42.678;26.324;2024-02-26T06:34:03;98394.31;;;9.80;100.00
21236;BME280;10775;42.678;26.324;2024-02-26T06:36:29;98398.53;;;9.87;100.00
21236;BME280;10775;42.678;26.324;2024-02-26T06:38:57;98403.53;;;9.96;100.00
21236;BME280;10775;42.678;26.324;2024-02-26T06:41:22;98401.50;;;10.09;100.00
21236;BME280;10775;42.678;26.324;2024-02-26T06:43:53;98394.31;;;10.20;100.00
21236;BME280;10775;42.678;26.324;2024-02-26T06:46:18;98393.28;;;10.28;100.00
21236;BME280;10775;42.678;26.324;2024-02-26T06:48:44;98403.50;;;10.38;100.00
21236;BME280;10775;42.678;26.324;2024-02-26T06:51:10;98405.06;;;10.45;100.00
21236;BME280;10775;42.678;26.324;2024-02-26T06:53:35;98409.13;;;10.57;100.00
21236;BME280;10775;42.678;26.324;2024-02-26T06:56:00;98411.34;;;10.74;100.00
21236;BME280;10775;42.678;26.324;2024-02-26T06:58:26;98415.47;;;10.83;100.00
21236;BME280;10775;42.678;26.324;2024-02-26T07:00:51;98418.72;;;10.93;100.00
21236;BME280;10775;42.678;26.324;2024-02-26T07:03:17;98417.03;;;10.92;100.00
21236;BME280;10775;42.678;26.324;2024-02-26T07:05:42;98416.84;;;10.63;100.00
21236;BME280;10775;42.678;26.324;2024-02-26T07:08:09;98417.72;;;10.62;100.00
21236;BME280;10775;42.678;26.324;2024-02-26T07:10:35;98410.13;;;10.87;100.00
21236;BME280;10775;42.678;26.324;2024-02-26T07:13:00;98407.94;;;11.05;100.00
21236;BME280;10775;42.678;26.324;2024-02-26T07:15:25;98410.72;;;11.31;100.00
21236;BME280;10775;42.678;26.324;2024-02-26T07:17:51;98405.78;;;11.52;100.00
21236;BME280;10775;42.678;26.324;2024-02-26T07:20:16;98404.63;;;11.62;100.00
21236;BME280;10775;42.678;26.324;2024-02-26T07:22:43;98409.56;;;11.73;100.00
21236;BME280;10775;42.678;26.324;2024-02-26T07:25:09;98404.50;;;11.98;100.00
21236;BME280;10775;42.678;26.324;2024-02-26T07:27:38;98402.69;;;12.00;100.00
21236;BME280;10775;42.678;26.324;2024-02-26T07:30:04;98398.16;;;12.05;100.00
21236;BME280;10775;42.678;26.324;2024-02-26T07:32:30;98395.22;;;12.16;100.00
21236;BME280;10775;42.678;26.324;2024-02-26T07:34:55;98394.03;;;12.26;100.00
21236;BME280;10775;42.678;26.324;2024-02-26T07:37:20;98395.22;;;12.44;100.00
21236;BME280;10775;42.678;26.324;2024-02-26T07:39:46;98398.38;;;12.55;100.00
21236;BME280;10775;42.678;26.324;2024-02-26T07:42:11;98397.34;;;12.59;100.00
21236;BME280;10775;42.678;26.324;2024-02-26T07:44:37;98405.19;;;12.59;100.00
21236;BME280;10775;42.678;26.324;2024-02-26T07:47:02;98411.97;;;12.67;100.00
21236;BME280;10775;42.678;26.324;2024-02-26T07:49:28;98407.41;;;12.73;100.00
21236;BME280;10775;42.678;26.324;2024-02-26T07:51:53;98409.19;;;12.71;99.93
21236;BME280;10775;42.678;26.324;2024-02-26T07:54:19;98407.19;;;12.53;100.00
21236;BME280;10775;42.678;26.324;2024-02-26T07:56:45;98416.75;;;12.26;100.00
21236;BME280;10775;42.678;26.324;2024-02-26T07:59:10;98411.41;;;12.29;100.00
21236;BME280;10775;42.678;26.324;2024-02-26T08:01:36;98410.22;;;12.39;100.00
21236;BME280;10775;42.678;26.324;2024-02-26T08:04:04;98420.81;;;12.36;100.00
21236;BME280;10775;42.678;26.324;2024-02-26T08:06:30;98418.22;;;12.34;100.00
21236;BME280;10775;42.678;26.324;2024-02-26T08:08:55;98420.31;;;12.25;100.00
21236;BME280;10775;42.678;26.324;2024-02-26T08:11:21;98417.38;;;12.34;100.00
21236;BME280;10775;42.678;26.324;2024-02-26T08:13:46;98421.72;;;12.35;100.00
21236;BME280;10775;42.678;26.324;2024-02-26T08:16:12;98415.53;;;12.64;100.00
21236;BME280;10775;42.678;26.324;2024-02-26T08:18:37;98421.22;;;13.03;100.00
21236;BME280;10775;42.678;26.324;2024-02-26T08:21:03;98419.22;;;13.62;99.57
21236;BME280;10775;42.678;26.324;2024-02-26T08:23:28;98405.50;;;14.01;96.69
21236;BME280;10775;42.678;26.324;2024-02-26T08:25:54;98405.34;;;14.49;96.00
21236;BME280;10775;42.678;26.324;2024-02-26T08:28:19;98408.44;;;15.03;92.62
21236;BME280;10775;42.678;26.324;2024-02-26T08:30:45;98400.97;;;15.14;90.99
21236;BME280;10775;42.678;26.324;2024-02-26T08:33:10;98397.00;;;15.64;90.24
21236;BME280;10775;42.678;26.324;2024-02-26T08:35:36;98393.16;;;15.73;86.59
21236;BME280;10775;42.678;26.324;2024-02-26T08:38:02;98387.63;;;15.98;88.43
21236;BME280;10775;42.678;26.324;2024-02-26T08:40:28;98385.09;;;16.33;87.44
21236;BME280;10775;42.678;26.324;2024-02-26T08:42:53;98391.09;;;16.53;85.06
21236;BME280;10775;42.678;26.324;2024-02-26T08:45:19;98387.72;;;16.69;85.90
21236;BME280;10775;42.678;26.324;2024-02-26T08:47:45;98388.88;;;16.82;84.15
21236;BME280;10775;42.678;26.324;2024-02-26T08:50:11;98383.28;;;16.88;83.97
21236;BME280;10775;42.678;26.324;2024-02-26T08:52:38;98379.22;;;16.81;81.31
21236;BME280;10775;42.678;26.324;2024-02-26T08:55:03;98386.44;;;16.78;82.43
21236;BME280;10775;42.678;26.324;2024-02-26T08:57:31;98382.44;;;17.05;82.77
21236;BME280;10775;42.678;26.324;2024-02-26T08:59:58;98387.00;;;17.02;80.84
21236;BME280;10775;42.678;26.324;2024-02-26T09:02:23;98377.78;;;16.74;81.74
21236;BME280;10775;42.678;26.324;2024-02-26T09:04:49;98384.13;;;16.89;80.96
21236;BME280;10775;42.678;26.324;2024-02-26T09:07:16;98382.66;;;16.83;81.43
21236;BME280;10775;42.678;26.324;2024-02-26T09:09:41;98382.09;;;16.94;81.43
21236;BME280;10775;42.678;26.324;2024-02-26T09:12:07;98390.97;;;17.10;80.03
21236;BME280;10775;42.678;26.324;2024-02-26T09:14:33;98380.31;;;16.94;80.96
21236;BME280;10775;42.678;26.324;2024-02-26T09:16:58;98374.97;;;17.13;80.51
21236;BME280;10775;42.678;26.324;2024-02-26T09:19:25;98386.53;;;16.93;79.56
21236;BME280;10775;42.678;26.324;2024-02-26T09:21:52;98388.94;;;16.81;80.54
21236;BME280;10775;42.678;26.324;2024-02-26T09:24:21;98386.56;;;16.74;81.02
21236;BME280;10775;42.678;26.324;2024-02-26T09:26:47;98386.69;;;16.71;81.46
21236;BME280;10775;42.678;26.324;2024-02-26T09:29:12;98377.00;;;16.55;81.67
21236;BME280;10775;42.678;26.324;2024-02-26T09:31:38;98384.09;;;16.35;82.52
21236;BME280;10775;42.678;26.324;2024-02-26T09:34:05;98378.03;;;16.33;84.95
21236;BME280;10775;42.678;26.324;2024-02-26T09:36:30;98376.63;;;16.26;83.10
21236;BME280;10775;42.678;26.324;2024-02-26T09:38:56;98376.72;;;16.05;83.13
21236;BME280;10775;42.678;26.324;2024-02-26T09:41:21;98370.22;;;15.75;83.65
21236;BME280;10775;42.678;26.324;2024-02-26T09:43:48;98364.31;;;15.49;84.79
21236;BME280;10775;42.678;26.324;2024-02-26T09:46:17;98373.22;;;15.26;86.51
21236;BME280;10775;42.678;26.324;2024-02-26T09:48:46;98366.53;;;15.19;88.36
21236;BME280;10775;42.678;26.324;2024-02-26T09:51:13;98368.72;;;15.09;87.08
21236;BME280;10775;42.678;26.324;2024-02-26T09:53:39;98367.91;;;15.07;88.43
21236;BME280;10775;42.678;26.324;2024-02-26T09:56:08;98361.78;;;15.07;88.45
21236;BME280;10775;42.678;26.324;2024-02-26T09:58:34;98356.34;;;15.11;88.75
21236;BME280;10775;42.678;26.324;2024-02-26T10:01:02;98345.00;;;15.09;88.36
21236;BME280;10775;42.678;26.324;2024-02-26T10:03:31;98344.03;;;15.12;89.83
21236;BME280;10775;42.678;26.324;2024-02-26T10:06:00;98335.13;;;15.14;90.60
21236;BME280;10775;42.678;26.324;2024-02-26T10:08:28;98330.69;;;15.35;89.75
21236;BME280;10775;42.678;26.324;2024-02-26T10:10:54;98323.31;;;15.62;88.80
21236;BME280;10775;42.678;26.324;2024-02-26T10:13:20;98326.41;;;15.91;87.50
21236;BME280;10775;42.678;26.324;2024-02-26T10:15:45;98329.16;;;16.07;86.75
21236;BME280;10775;42.678;26.324;2024-02-26T10:18:11;98316.84;;;16.07;86.31
21236;BME280;10775;42.678;26.324;2024-02-26T10:20:36;98316.06;;;16.05;86.72
21236;BME280;10775;42.678;26.324;2024-02-26T10:23:03;98311.03;;;16.55;84.83
21236;BME280;10775;42.678;26.324;2024-02-26T10:25:28;98299.84;;;17.02;83.28
21236;BME280;10775;42.678;26.324;2024-02-26T10:28:00;98300.09;;;17.30;82.30
21236;BME280;10775;42.678;26.324;2024-02-26T10:30:28;98297.22;;;17.51;80.26
21236;BME280;10775;42.678;26.324;2024-02-26T10:32:54;98300.19;;;17.78;79.58
21236;BME280;10775;42.678;26.324;2024-02-26T10:35:19;98298.75;;;17.88;77.70
21236;BME280;10775;42.678;26.324;2024-02-26T10:37:49;98299.00;;;18.15;77.25
21236;BME280;10775;42.678;26.324;2024-02-26T10:40:15;98297.06;;;17.87;76.78
21236;BME280;10775;42.678;26.324;2024-02-26T10:42:41;98301.19;;;17.75;77.03
21236;BME280;10775;42.678;26.324;2024-02-26T10:45:08;98305.03;;;17.70;76.77
21236;BME280;10775;42.678;26.324;2024-02-26T10:47:35;98303.00;;;17.75;76.22
21236;BME280;10775;42.678;26.324;2024-02-26T10:50:05;98308.75;;;17.50;78.78
21236;BME280;10775;42.678;26.324;2024-02-26T10:52:32;98305.72;;;17.73;77.92
21236;BME280;10775;42.678;26.324;2024-02-26T10:55:01;98299.38;;;17.44;77.39
21236;BME280;10775;42.678;26.324;2024-02-26T10:57:39;98304.69;;;16.93;79.25
21236;BME280;10775;42.678;26.324;2024-02-26T11:00:05;98306.34;;;17.12;82.60
21236;BME280;10775;42.678;26.324;2024-02-26T11:02:33;98301.44;;;17.22;80.10
21236;BME280;10775;42.678;26.324;2024-02-26T11:05:02;98305.28;;;17.16;80.17
21236;BME280;10775;42.678;26.324;2024-02-26T11:07:27;98295.53;;;17.34;80.48
21236;BME280;10775;42.678;26.324;2024-02-26T11:09:55;98299.22;;;16.97;81.13
21236;BME280;10775;42.678;26.324;2024-02-26T11:12:22;98299.25;;;16.62;81.59
21236;BME280;10775;42.678;26.324;2024-02-26T11:14:49;98292.25;;;16.61;81.73
21236;BME280;10775;42.678;26.324;2024-02-26T11:17:20;98290.88;;;16.88;82.11
21236;BME280;10775;42.678;26.324;2024-02-26T11:19:47;98286.97;;;16.95;82.27
21236;BME280;10775;42.678;26.324;2024-02-26T11:22:14;98294.19;;;17.25;82.20
21236;BME280;10775;42.678;26.324;2024-02-26T11:24:40;98293.25;;;17.44;81.69
21236;BME280;10775;42.678;26.324;2024-02-26T11:27:09;98286.53;;;17.54;82.38
21236;BME280;10775;42.678;26.324;2024-02-26T11:29:43;98278.81;;;17.33;81.22
21236;BME280;10775;42.678;26.324;2024-02-26T11:32:10;98273.78;;;17.29;82.66
21236;BME280;10775;42.678;26.324;2024-02-26T11:34:36;98266.03;;;17.42;81.48
21236;BME280;10775;42.678;26.324;2024-02-26T11:37:16;98256.56;;;17.53;79.62
21236;BME280;10775;42.678;26.324;2024-02-26T11:39:42;98252.84;;;17.73;78.55
21236;BME280;10775;42.678;26.324;2024-02-26T11:42:09;98253.78;;;17.72;78.35
21236;BME280;10775;42.678;26.324;2024-02-26T11:44:35;98264.78;;;17.49;77.65
21236;BME280;10775;42.678;26.324;2024-02-26T11:47:33;98259.63;;;17.30;77.06
21236;BME280;10775;42.678;26.324;2024-02-26T11:50:35;98260.28;;;17.17;75.83
21236;BME280;10775;42.678;26.324;2024-02-26T11:53:27;98255.91;;;17.01;74.93
21236;BME280;10775;42.678;26.324;2024-02-26T11:58:56;98261.75;;;16.90;74.27
21236;BME280;10775;42.678;26.324;2024-02-26T12:01:48;98263.63;;;16.88;74.59
21236;BME280;10775;42.678;26.324;2024-02-26T12:04:24;98266.88;;;16.93;76.01
21236;BME280;10775;42.678;26.324;2024-02-26T12:07:00;98263.84;;;16.83;77.44
21236;BME280;10775;42.678;26.324;2024-02-26T12:09:35;98258.72;;;16.98;78.04
21236;BME280;10775;42.678;26.324;2024-02-26T12:12:02;98252.91;;;16.91;77.99
21236;BME280;10775;42.678;26.324;2024-02-26T12:14:28;98254.13;;;17.01;78.50
21236;BME280;10775;42.678;26.324;2024-02-26T12:16:55;98253.50;;;16.96;78.36
21236;BME280;10775;42.678;26.324;2024-02-26T12:19:21;98257.91;;;17.13;77.88
21236;BME280;10775;42.678;26.324;2024-02-26T12:21:51;98258.00;;;17.27;77.71
21236;BME280;10775;42.678;26.324;2024-02-26T12:24:19;98255.78;;;17.35;76.13
21236;BME280;10775;42.678;26.324;2024-02-26T12:26:45;98258.91;;;17.44;75.32
21236;BME280;10775;42.678;26.324;2024-02-26T12:29:12;98255.50;;;17.08;75.19
21236;BME280;10775;42.678;26.324;2024-02-26T12:31:39;98255.88;;;17.18;76.10
21236;BME280;10775;42.678;26.324;2024-02-26T12:34:06;98251.81;;;17.44;74.99
21236;BME280;10775;42.678;26.324;2024-02-26T12:36:33;98254.28;;;17.47;74.38
21236;BME280;10775;42.678;26.324;2024-02-26T12:39:00;98260.16;;;17.68;74.60
21236;BME280;10775;42.678;26.324;2024-02-26T12:41:27;98256.75;;;17.50;76.09
21236;BME280;10775;42.678;26.324;2024-02-26T12:43:55;98248.31;;;17.75;75.49
21236;BME280;10775;42.678;26.324;2024-02-26T12:46:21;98256.50;;;17.71;75.45
21236;BME280;10775;42.678;26.324;2024-02-26T12:48:47;98253.00;;;17.70;76.22